createdAt,value
2019-02-19T00:02:18.906Z,8.50
2019-02-19T00:04:48.189Z,8.50
2019-02-19T00:07:17.545Z,8.50
2019-02-19T00:09:46.823Z,8.40
2019-02-19T00:12:16.159Z,8.40
2019-02-19T00:14:45.539Z,8.40
2019-02-19T00:17:14.967Z,8.40
2019-02-19T00:19:44.357Z,8.40
2019-02-19T00:22:13.931Z,8.40
2019-02-19T00:24:43.206Z,8.40
2019-02-19T00:27:12.486Z,8.30
2019-02-19T00:29:41.877Z,8.30
2019-02-19T00:32:11.281Z,8.20
2019-02-19T00:34:40.591Z,8.20
2019-02-19T00:37:10.137Z,8.20
2019-02-19T00:39:39.426Z,8.20
2019-02-19T00:42:08.921Z,8.20
2019-02-19T00:44:38.246Z,8.20
2019-02-19T00:47:07.534Z,8.20
2019-02-19T00:49:36.955Z,8.20
2019-02-19T00:52:06.259Z,8.20
2019-02-19T00:54:35.684Z,8.30
2019-02-19T00:57:04.996Z,8.30
2019-02-19T00:59:34.617Z,8.30
2019-02-19T01:02:03.890Z,8.30
2019-02-19T01:04:33.252Z,8.20
2019-02-19T01:07:02.706Z,8.20
2019-02-19T01:09:31.980Z,8.20
2019-02-19T01:12:01.296Z,8.30
2019-02-19T01:14:30.868Z,8.20
2019-02-19T01:17:00.161Z,8.20
2019-02-19T01:19:29.450Z,8.20
2019-02-19T01:21:58.911Z,8.20
2019-02-19T01:24:28.273Z,8.20
2019-02-19T01:26:57.620Z,8.20
2019-02-19T01:29:26.967Z,8.20
2019-02-19T01:31:56.317Z,8.20
2019-02-19T01:34:25.633Z,8.20
2019-02-19T01:36:55.082Z,8.10
2019-02-19T01:39:24.438Z,8.10
2019-02-19T01:41:53.794Z,8.10
2019-02-19T01:44:23.249Z,8.10
2019-02-19T01:46:52.597Z,8.10
2019-02-19T01:49:21.877Z,8.10
2019-02-19T01:51:51.278Z,8.10
2019-02-19T01:54:20.801Z,8.10
2019-02-19T01:56:50.147Z,8.10
2019-02-19T01:59:19.545Z,8.10
2019-02-19T02:01:48.834Z,8.10
2019-02-19T02:04:18.228Z,8.10
2019-02-19T02:06:47.635Z,8.10
2019-02-19T02:09:16.913Z,8.00
2019-02-19T02:11:46.190Z,8.00
2019-02-19T02:14:15.734Z,8.00
2019-02-19T02:16:45.050Z,8.00
2019-02-19T02:19:14.392Z,7.90
2019-02-19T02:21:43.953Z,7.90
2019-02-19T02:24:13.237Z,7.90
2019-02-19T02:26:42.529Z,7.90
2019-02-19T02:29:11.877Z,7.90
2019-02-19T02:31:41.248Z,7.90
2019-02-19T02:34:10.818Z,7.90
2019-02-19T02:36:40.144Z,7.80
2019-02-19T02:39:09.514Z,7.80
2019-02-19T02:41:38.869Z,7.80
2019-02-19T02:44:08.403Z,7.80
2019-02-19T02:46:37.669Z,7.80
2019-02-19T02:49:06.961Z,7.80
2019-02-19T02:51:36.345Z,7.80
2019-02-19T02:54:05.681Z,7.80
2019-02-19T02:56:34.984Z,7.80
2019-02-19T02:59:04.501Z,7.70
2019-02-19T03:01:34.345Z,7.70
2019-02-19T03:04:03.714Z,7.80
2019-02-19T03:06:46.657Z,7.70
2019-02-19T03:09:15.936Z,7.70
2019-02-19T03:11:45.231Z,7.70
2019-02-19T03:14:14.802Z,7.70
2019-02-19T03:16:44.149Z,7.70
2019-02-19T03:19:13.513Z,7.70
2019-02-19T03:21:42.895Z,7.60
2019-02-19T03:24:12.163Z,7.60
2019-02-19T03:26:41.421Z,7.60
2019-02-19T03:29:10.753Z,7.50
2019-02-19T03:31:40.145Z,7.50
2019-02-19T03:34:09.492Z,7.50
2019-02-19T03:36:38.858Z,7.40
2019-02-19T03:39:08.380Z,7.40
2019-02-19T03:41:38.603Z,7.30
2019-02-19T03:44:08.138Z,7.30
2019-02-19T03:46:37.490Z,7.30
2019-02-19T03:49:06.825Z,7.30
2019-02-19T03:51:36.242Z,7.20
2019-02-19T03:54:05.665Z,7.20
2019-02-19T03:56:35.083Z,7.20
2019-02-19T03:59:04.451Z,7.20
2019-02-19T04:01:33.833Z,7.20
2019-02-19T04:04:03.214Z,7.20
2019-02-19T04:06:32.774Z,7.20
2019-02-19T04:09:02.128Z,7.10
2019-02-19T04:11:31.403Z,7.10
2019-02-19T04:14:00.815Z,7.10
2019-02-19T04:16:30.160Z,7.10
2019-02-19T04:18:59.530Z,7.00
2019-02-19T04:21:29.450Z,7.00
2019-02-19T04:23:58.784Z,6.90
2019-02-19T04:26:28.173Z,6.90
2019-02-19T04:28:57.541Z,6.90
2019-02-19T04:31:26.893Z,6.90
2019-02-19T04:33:56.198Z,6.80
2019-02-19T04:36:25.593Z,6.80
2019-02-19T04:38:54.996Z,6.80
2019-02-19T04:41:24.304Z,6.80
2019-02-19T04:43:53.625Z,6.80
2019-02-19T04:46:31.202Z,6.70
2019-02-19T04:48:53.917Z,6.70
2019-02-19T04:51:23.234Z,6.70
2019-02-19T04:53:52.522Z,6.70
2019-02-19T04:56:21.964Z,6.70
2019-02-19T04:58:51.338Z,6.60
2019-02-19T05:01:21.386Z,6.60
2019-02-19T05:03:50.820Z,6.60
2019-02-19T05:06:20.108Z,6.60
2019-02-19T05:08:49.457Z,6.60
2019-02-19T05:11:19.032Z,6.60
2019-02-19T05:13:48.336Z,6.50
2019-02-19T05:16:17.629Z,6.50
2019-02-19T05:18:47.050Z,6.50
2019-02-19T05:21:16.409Z,6.50
2019-02-19T05:23:45.697Z,6.50
2019-02-19T05:26:15.097Z,6.50
2019-02-19T05:28:44.491Z,6.40
2019-02-19T05:31:13.894Z,6.40
2019-02-19T05:33:46.053Z,6.40
2019-02-19T05:36:15.471Z,6.40
2019-02-19T05:38:44.864Z,6.40
2019-02-19T05:41:14.621Z,6.40
2019-02-19T05:43:43.918Z,6.40
2019-02-19T05:46:13.289Z,6.30
2019-02-19T05:48:42.617Z,6.30
2019-02-19T05:51:11.945Z,6.30
2019-02-19T05:53:41.266Z,6.30
2019-02-19T05:56:10.717Z,6.30
2019-02-19T05:58:39.997Z,6.30
2019-02-19T06:01:09.373Z,6.20
2019-02-19T06:03:38.928Z,6.20
2019-02-19T06:06:08.681Z,6.20
2019-02-19T06:08:38.042Z,6.20
2019-02-19T06:11:07.475Z,6.20
2019-02-19T06:13:36.802Z,6.20
2019-02-19T06:16:06.170Z,6.20
2019-02-19T06:18:40.413Z,6.20
2019-02-19T06:21:09.815Z,6.20
2019-02-19T06:23:39.202Z,6.20
2019-02-19T06:26:08.649Z,6.20
2019-02-19T06:28:37.958Z,6.10
2019-02-19T06:31:07.336Z,6.10
2019-02-19T06:33:36.838Z,6.10
2019-02-19T06:36:06.137Z,6.10
2019-02-19T06:38:35.514Z,6.00
2019-02-19T06:41:05.437Z,6.10
2019-02-19T06:43:34.858Z,6.10
2019-02-19T06:46:04.201Z,6.00
2019-02-19T06:48:33.663Z,6.00
2019-02-19T06:51:02.936Z,6.00
2019-02-19T06:53:32.235Z,6.00
2019-02-19T06:56:01.717Z,6.00
2019-02-19T06:58:31.115Z,6.00
2019-02-19T07:01:00.641Z,6.00
2019-02-19T07:03:37.576Z,6.00
2019-02-19T07:06:06.858Z,6.00
2019-02-19T07:08:36.234Z,6.00
2019-02-19T07:11:05.612Z,6.00
2019-02-19T07:13:34.900Z,6.00
2019-02-19T07:16:04.281Z,6.00
2019-02-19T07:18:33.761Z,6.00
2019-02-19T07:21:03.251Z,6.00
2019-02-19T07:23:32.562Z,6.00
2019-02-19T07:26:01.872Z,6.00
2019-02-19T07:28:31.582Z,6.00
2019-02-19T07:31:00.949Z,6.00
2019-02-19T07:33:30.275Z,6.00
2019-02-19T07:35:59.886Z,6.00
2019-02-19T07:38:29.253Z,6.10
2019-02-19T07:40:58.694Z,6.00
2019-02-19T07:43:28.020Z,6.10
2019-02-19T07:45:57.710Z,6.10
2019-02-19T07:48:27.193Z,6.10
2019-02-19T07:51:15.593Z,6.20
2019-02-19T07:53:44.960Z,6.20
2019-02-19T07:56:14.372Z,6.20
2019-02-19T07:58:43.729Z,6.20
2019-02-19T08:01:13.311Z,6.30
2019-02-19T08:03:42.737Z,6.30
2019-02-19T08:06:12.120Z,6.30
2019-02-19T08:08:41.570Z,6.30
2019-02-19T08:11:11.066Z,6.40
2019-02-19T08:13:40.448Z,6.40
2019-02-19T08:16:09.826Z,6.40
2019-02-19T08:18:39.318Z,6.50
2019-02-19T08:21:08.729Z,6.50
2019-02-19T08:23:38.177Z,6.50
2019-02-19T08:26:07.489Z,6.60
2019-02-19T08:28:36.878Z,6.60
2019-02-19T08:31:06.246Z,6.60
2019-02-19T08:33:35.774Z,6.70
2019-02-19T08:36:05.139Z,6.70
2019-02-19T08:38:34.468Z,6.70
2019-02-19T08:41:03.922Z,6.80
2019-02-19T08:43:33.345Z,6.90
2019-02-19T08:46:02.917Z,6.90
2019-02-19T08:48:32.252Z,7.00
2019-02-19T08:51:01.591Z,7.00
2019-02-19T08:53:31.029Z,7.10
2019-02-19T08:56:00.333Z,7.10
2019-02-19T08:58:29.654Z,7.10
2019-02-19T09:00:59.209Z,7.20
2019-02-19T09:03:28.537Z,7.20
2019-02-19T09:05:57.986Z,7.30
2019-02-19T09:08:27.323Z,7.40
2019-02-19T09:10:56.709Z,7.50
2019-02-19T09:13:25.993Z,7.50
2019-02-19T09:15:55.703Z,7.60
2019-02-19T09:18:25.080Z,7.60
2019-02-19T09:20:54.423Z,7.70
2019-02-19T09:23:23.925Z,7.70
2019-02-19T09:25:53.387Z,7.80
2019-02-19T09:28:22.685Z,7.80
2019-02-19T09:30:52.057Z,7.90
2019-02-19T09:33:21.439Z,7.90
2019-02-19T09:35:50.741Z,8.00
2019-02-19T09:38:20.279Z,8.10
2019-02-19T09:40:49.720Z,8.20
2019-02-19T09:43:19.019Z,8.30
2019-02-19T09:45:48.462Z,8.70
2019-02-19T09:48:17.762Z,9.30
2019-02-19T09:50:47.076Z,9.90
2019-02-19T09:53:16.649Z,10.50
2019-02-19T09:55:46.466Z,11.10
2019-02-19T09:58:15.790Z,11.40
2019-02-19T10:00:45.375Z,11.70
2019-02-19T10:03:15.073Z,11.90
2019-02-19T10:05:44.450Z,12.30
2019-02-19T10:08:13.937Z,12.50
2019-02-19T10:10:43.314Z,12.50
2019-02-19T10:13:12.682Z,12.70
2019-02-19T10:15:42.208Z,12.70
2019-02-19T10:18:11.604Z,12.90
2019-02-19T10:20:41.058Z,13.00
2019-02-19T10:23:10.458Z,13.30
2019-02-19T10:25:39.866Z,13.30
2019-02-19T10:28:09.208Z,12.90
2019-02-19T10:30:38.684Z,12.60
2019-02-19T10:33:08.052Z,12.20
2019-02-19T10:35:37.570Z,11.80
2019-02-19T10:38:06.930Z,11.70
2019-02-19T10:40:36.239Z,11.60
2019-02-19T10:43:05.623Z,11.80
2019-02-19T10:45:35.062Z,12.30
2019-02-19T10:48:04.453Z,12.80
2019-02-19T10:50:33.766Z,13.40
2019-02-19T10:53:03.102Z,13.80
2019-02-19T10:55:32.417Z,14.10
2019-02-19T10:58:01.776Z,14.40
2019-02-19T11:00:31.185Z,14.70
2019-02-19T11:03:00.480Z,14.90
2019-02-19T11:05:29.909Z,15.10
2019-02-19T11:07:59.238Z,15.20
2019-02-19T11:10:28.528Z,15.60
2019-02-19T11:12:57.957Z,15.30
2019-02-19T11:15:27.670Z,14.80
2019-02-19T11:17:57.005Z,14.00
2019-02-19T11:20:26.382Z,13.70
2019-02-19T11:22:55.905Z,13.50
2019-02-19T11:25:25.261Z,13.40
2019-02-19T11:27:54.622Z,13.10
2019-02-19T11:30:24.021Z,13.20
2019-02-19T11:32:53.330Z,13.00
2019-02-19T11:35:22.700Z,12.80
2019-02-19T11:37:52.249Z,12.90
2019-02-19T11:40:21.565Z,13.10
2019-02-19T11:42:50.881Z,13.10
2019-02-19T11:45:20.452Z,12.90
2019-02-19T11:47:49.753Z,12.70
2019-02-19T11:50:19.042Z,12.80
2019-02-19T11:52:48.652Z,12.90
2019-02-19T11:55:18.237Z,13.30
2019-02-19T11:57:47.612Z,13.70
2019-02-19T12:00:20.172Z,14.00
2019-02-19T12:02:49.494Z,14.50
2019-02-19T12:05:18.885Z,15.30
2019-02-19T12:07:48.357Z,15.40
2019-02-19T12:10:17.870Z,15.00
2019-02-19T12:12:47.283Z,14.60
2019-02-19T12:15:16.689Z,14.30
2019-02-19T12:17:46.068Z,14.10
2019-02-19T12:20:15.417Z,14.20
2019-02-19T12:22:44.849Z,14.50
2019-02-19T12:25:14.635Z,14.40
2019-02-19T12:27:44.015Z,14.20
2019-02-19T12:30:13.864Z,14.10
2019-02-19T12:32:43.232Z,14.60
2019-02-19T12:35:13.373Z,14.70
2019-02-19T12:37:42.787Z,14.20
2019-02-19T12:40:12.165Z,14.10
2019-02-19T12:42:41.586Z,14.40
2019-02-19T12:45:11.467Z,14.40
2019-02-19T12:47:40.907Z,14.40
2019-02-19T12:50:11.741Z,14.40
2019-02-19T12:52:41.306Z,14.20
2019-02-19T12:55:11.287Z,13.90
2019-02-19T12:57:40.686Z,13.50
2019-02-19T13:00:12.722Z,13.30
2019-02-19T13:02:43.931Z,13.20
2019-02-19T13:05:13.449Z,13.20
2019-02-19T13:07:42.811Z,13.10
2019-02-19T13:10:12.214Z,13.20
2019-02-19T13:12:41.505Z,13.20
2019-02-19T13:15:12.518Z,13.20
2019-02-19T13:17:41.933Z,13.20
2019-02-19T13:20:12.741Z,13.30
2019-02-19T13:22:42.162Z,13.30
2019-02-19T13:25:11.695Z,13.30
2019-02-19T13:27:40.997Z,13.20
2019-02-19T13:30:13.153Z,13.20
2019-02-19T13:32:42.742Z,13.20
2019-02-19T13:35:13.117Z,13.10
2019-02-19T13:37:42.539Z,13.10
2019-02-19T13:40:12.474Z,13.20
2019-02-19T13:42:42.379Z,13.10
2019-02-19T13:45:12.718Z,13.00
2019-02-19T13:47:42.039Z,13.00
2019-02-19T13:50:13.926Z,13.10
2019-02-19T13:53:02.427Z,13.20
2019-02-19T13:55:34.930Z,13.40
2019-02-19T13:58:04.374Z,13.50
2019-02-19T14:00:35.482Z,13.60
2019-02-19T14:03:04.925Z,13.60
2019-02-19T14:05:34.274Z,13.40
2019-02-19T14:08:03.614Z,13.10
2019-02-19T14:10:32.953Z,13.00
2019-02-19T14:13:02.320Z,12.80
2019-02-19T14:15:51.213Z,12.80
2019-02-19T14:18:25.887Z,12.80
2019-02-19T14:21:15.043Z,12.80
2019-02-19T14:24:15.446Z,12.80
2019-02-19T14:27:00.798Z,12.90
2019-02-19T14:29:55.188Z,13.00
2019-02-19T14:32:42.526Z,12.90
2019-02-19T14:35:26.303Z,12.90
2019-02-19T14:38:25.061Z,12.90
2019-02-19T14:41:05.568Z,12.90
2019-02-19T14:43:46.777Z,12.80
2019-02-19T14:46:53.211Z,12.70
2019-02-19T14:49:47.831Z,12.70
2019-02-19T14:52:51.328Z,12.60
2019-02-19T14:55:39.848Z,12.50
2019-02-19T14:58:15.386Z,12.40
2019-02-19T15:01:06.507Z,12.40
2019-02-19T15:03:57.900Z,12.30
2019-02-19T15:06:46.277Z,12.20
2019-02-19T15:09:33.048Z,12.20
2019-02-19T15:12:27.407Z,12.10
2019-02-19T15:15:27.798Z,12.20
2019-02-19T15:18:21.816Z,12.20
2019-02-19T15:21:17.264Z,12.10
2019-02-19T15:24:05.651Z,12.10
2019-02-19T15:26:54.677Z,12.00
2019-02-19T15:29:42.254Z,11.90
2019-02-19T15:32:30.461Z,11.80
2019-02-19T15:35:16.844Z,11.70
2019-02-19T15:38:08.593Z,11.70
2019-02-19T15:40:56.613Z,11.60
2019-02-19T15:43:53.933Z,11.70
2019-02-19T15:46:49.324Z,11.70
2019-02-19T15:49:37.665Z,11.70
2019-02-19T15:52:24.666Z,11.70
2019-02-19T15:55:11.865Z,11.60
2019-02-19T15:58:09.585Z,11.60
2019-02-19T16:00:44.190Z,11.60
2019-02-19T16:03:32.847Z,11.50
2019-02-19T16:06:33.533Z,11.50
2019-02-19T16:09:10.770Z,11.40
2019-02-19T16:12:04.697Z,11.40
2019-02-19T16:15:01.939Z,11.30
2019-02-19T16:17:55.644Z,11.30
2019-02-19T16:20:53.110Z,11.30
2019-02-19T16:23:56.613Z,11.20
2019-02-19T16:26:50.719Z,11.20
2019-02-19T16:29:39.218Z,11.20
2019-02-19T16:32:36.353Z,11.10
2019-02-19T16:35:19.083Z,11.10
2019-02-19T16:38:07.321Z,11.00
2019-02-19T16:40:46.810Z,11.00
2019-02-19T16:43:34.061Z,10.90
2019-02-19T16:46:22.403Z,10.90
2019-02-19T16:49:09.209Z,10.80
2019-02-19T16:52:01.992Z,10.70
2019-02-19T16:54:53.941Z,10.70
2019-02-19T16:57:34.675Z,10.60
2019-02-19T17:00:14.689Z,10.50
2019-02-19T17:02:55.342Z,10.50
2019-02-19T17:05:32.817Z,10.40
2019-02-19T17:08:19.841Z,10.30
2019-02-19T17:11:04.850Z,10.30
2019-02-19T17:14:04.825Z,10.20
2019-02-19T17:16:53.422Z,10.20
2019-02-19T17:19:40.589Z,10.10
2019-02-19T17:22:40.884Z,10.10
2019-02-19T17:25:18.638Z,10.00
2019-02-19T17:28:05.833Z,10.00
2019-02-19T17:30:56.808Z,10.00
2019-02-19T17:34:00.094Z,10.00
2019-02-19T17:36:57.106Z,9.90
2019-02-19T17:39:40.933Z,9.90
2019-02-19T17:42:27.669Z,9.80
2019-02-19T17:45:22.523Z,9.80
2019-02-19T17:48:09.447Z,9.70
2019-02-19T17:51:09.829Z,9.70
2019-02-19T17:53:56.532Z,9.70
2019-02-19T17:56:43.502Z,9.60
2019-02-19T17:59:43.981Z,9.60
2019-02-19T18:02:20.686Z,9.50
2019-02-19T18:05:11.991Z,9.50
2019-02-19T18:08:00.273Z,9.50
2019-02-19T18:10:42.662Z,9.40
2019-02-19T18:13:37.094Z,9.40
2019-02-19T18:16:28.048Z,9.40
2019-02-19T18:18:57.463Z,9.30
2019-02-19T18:21:26.830Z,9.30
2019-02-19T18:23:58.618Z,9.30
2019-02-19T18:26:33.072Z,9.20
2019-02-19T18:29:02.472Z,9.30
2019-02-19T18:31:31.783Z,9.30
2019-02-19T18:34:01.555Z,9.30
2019-02-19T18:36:31.672Z,9.20
2019-02-19T18:39:00.928Z,9.20
2019-02-19T18:41:31.107Z,9.20
2019-02-19T18:44:00.483Z,9.20
2019-02-19T18:46:30.091Z,9.10
2019-02-19T18:48:59.554Z,9.10
2019-02-19T18:51:28.868Z,9.10
2019-02-19T18:54:08.915Z,9.10
2019-02-19T18:56:38.344Z,9.00
2019-02-19T18:59:07.642Z,9.00
2019-02-19T19:01:37.581Z,9.00
2019-02-19T19:04:06.870Z,8.90
2019-02-19T19:06:36.269Z,8.90
2019-02-19T19:09:07.476Z,8.90
2019-02-19T19:11:36.818Z,8.90
2019-02-19T19:14:06.153Z,8.80
2019-02-19T19:16:35.712Z,8.80
2019-02-19T19:19:05.029Z,8.70
2019-02-19T19:21:34.307Z,8.70
2019-02-19T19:24:04.096Z,8.70
2019-02-19T19:26:33.395Z,8.70
2019-02-19T19:29:02.687Z,8.70
2019-02-19T19:31:33.875Z,8.60
2019-02-19T19:34:03.048Z,8.60
2019-02-19T19:36:32.454Z,8.60
2019-02-19T19:39:01.984Z,8.60
2019-02-19T19:41:31.546Z,8.50
2019-02-19T19:44:00.842Z,8.60
2019-02-19T19:46:30.255Z,8.50
2019-02-19T19:48:59.710Z,8.40
2019-02-19T19:51:31.781Z,8.40
2019-02-19T19:54:01.503Z,8.40
2019-02-19T19:56:32.228Z,8.30
2019-02-19T19:59:01.839Z,8.30
2019-02-19T20:01:31.194Z,8.30
2019-02-19T20:04:00.600Z,8.30
2019-02-19T20:06:30.389Z,8.30
2019-02-19T20:08:59.766Z,8.20
2019-02-19T20:11:29.077Z,8.20
2019-02-19T20:13:58.561Z,8.20
2019-02-19T20:16:27.885Z,8.20
2019-02-19T20:18:57.263Z,8.20
2019-02-19T20:21:27.254Z,8.20
2019-02-19T20:23:56.722Z,8.20
2019-02-19T20:26:26.041Z,8.10
2019-02-19T20:28:55.345Z,8.00
2019-02-19T20:31:24.680Z,8.10
2019-02-19T20:33:53.972Z,8.10
2019-02-19T20:36:23.383Z,8.00
2019-02-19T20:38:52.761Z,8.00
2019-02-19T20:41:22.049Z,8.00
2019-02-19T20:43:51.468Z,8.00
2019-02-19T20:46:20.810Z,7.90
2019-02-19T20:48:50.103Z,7.80
2019-02-19T20:51:19.431Z,7.80
2019-02-19T20:53:48.759Z,7.80
2019-02-19T20:56:18.062Z,7.80
2019-02-19T20:58:47.492Z,7.80
2019-02-19T21:01:16.910Z,7.80
2019-02-19T21:03:46.193Z,7.70
2019-02-19T21:06:15.557Z,7.70
2019-02-19T21:08:44.873Z,7.70
2019-02-19T21:11:14.210Z,7.60
2019-02-19T21:13:43.657Z,7.60
2019-02-19T21:16:13.042Z,7.60
2019-02-19T21:18:42.315Z,7.60
2019-02-19T21:21:11.830Z,7.60
2019-02-19T21:23:41.238Z,7.60
2019-02-19T21:26:10.605Z,7.50
2019-02-19T21:28:40.146Z,7.50
2019-02-19T21:31:09.505Z,7.50
2019-02-19T21:33:38.908Z,7.50
2019-02-19T21:36:08.301Z,7.50
2019-02-19T21:38:37.610Z,7.50
2019-02-19T21:41:07.834Z,7.50
2019-02-19T21:43:37.577Z,7.50
2019-02-19T21:46:06.890Z,7.50
2019-02-19T21:48:36.200Z,7.50
2019-02-19T21:51:05.578Z,7.40
2019-02-19T21:53:34.942Z,7.40
2019-02-19T21:56:04.241Z,7.40
2019-02-19T21:58:33.789Z,7.30
2019-02-19T22:01:03.165Z,7.30
2019-02-19T22:03:32.571Z,7.30
2019-02-19T22:06:02.134Z,7.30
2019-02-19T22:08:31.422Z,7.30
2019-02-19T22:11:00.797Z,7.30
2019-02-19T22:13:31.300Z,7.30
2019-02-19T22:16:00.638Z,7.30
2019-02-19T22:18:30.026Z,7.30
2019-02-19T22:21:23.835Z,7.20
2019-02-19T22:23:53.179Z,7.20
2019-02-19T22:26:22.549Z,7.20
2019-02-19T22:28:51.866Z,7.10
2019-02-19T22:31:21.238Z,7.10
2019-02-19T22:33:50.701Z,7.10
2019-02-19T22:36:20.487Z,7.10
2019-02-19T22:38:49.822Z,7.10
2019-02-19T22:41:19.222Z,7.10
2019-02-19T22:43:48.597Z,7.10
2019-02-19T22:46:17.975Z,7.10
2019-02-19T22:48:47.690Z,7.10
2019-02-19T22:51:17.003Z,7.10
2019-02-19T22:54:17.358Z,7.10
2019-02-19T22:56:47.682Z,7.10
2019-02-19T22:59:16.965Z,7.10
2019-02-19T23:01:51.804Z,7.10
2019-02-19T23:04:21.153Z,7.10
2019-02-19T23:06:50.445Z,7.10
2019-02-19T23:09:19.845Z,7.00
2019-02-19T23:11:49.138Z,7.10
2019-02-19T23:14:18.442Z,7.10
2019-02-19T23:16:47.761Z,7.00
2019-02-19T23:19:17.273Z,7.00
2019-02-19T23:21:46.567Z,7.00
2019-02-19T23:24:15.963Z,6.90
2019-02-19T23:26:45.369Z,6.90
2019-02-19T23:29:14.668Z,6.90
2019-02-19T23:31:44.061Z,6.90
2019-02-19T23:34:13.663Z,6.80
2019-02-19T23:36:58.459Z,6.80
2019-02-19T23:39:27.770Z,6.70
2019-02-19T23:41:57.067Z,6.70
2019-02-19T23:44:26.362Z,6.70
2019-02-19T23:46:55.693Z,6.60
2019-02-19T23:49:25.088Z,6.60
2019-02-19T23:51:54.398Z,6.60
2019-02-19T23:54:24.017Z,6.50
2019-02-19T23:56:53.384Z,6.50
2019-02-19T23:59:22.681Z,6.50
